Time;durP1;ratioP1;P1;durP2;ratioP2;P2;SDS_P1;SDS_P2;PMS_P1;PMS_P2;Temp;Humidity;BMP_temperature;BMP_pressure;BME280_temperature;BME280_humidity;BME280_pressure;Samples;Min_cycle;Max_cycle;Signal;HPM_P1;HPM_P2
2021/07/23 00:00:37;;;;;;;3.80;2.50;;;;;;;24.28;47.07;95126.41;5129678;27;20087;-76
2021/07/23 00:03:03;;;;;;;3.63;2.80;;;;;;;24.27;46.94;95129.63;5129915;27;20322;-76
2021/07/23 00:05:28;;;;;;;3.83;2.53;;;;;;;24.26;46.85;95123.44;5130278;27;20035;-76
2021/07/23 00:07:54;;;;;;;6.00;3.20;;;;;;;24.23;46.98;95123.72;5129549;27;20042;-76
2021/07/23 00:10:19;;;;;;;11.10;3.08;;;;;;;24.16;47.57;95130.50;5129810;27;20035;-76
2021/07/23 00:12:45;;;;;;;3.47;2.22;;;;;;;24.16;47.57;95130.50;5129889;27;20034;-77
2021/07/23 00:15:10;;;;;;;4.22;2.53;;;;;;;24.13;47.18;95130.78;5129887;27;20031;-78
2021/07/23 00:17:36;;;;;;;4.40;2.53;;;;;;;24.09;47.42;95136.50;5128078;27;20081;-76
2021/07/23 00:20:01;;;;;;;4.13;2.80;;;;;;;24.10;47.62;95131.81;5128992;27;20031;-76
2021/07/23 00:22:27;;;;;;;4.10;2.47;;;;;;;24.07;47.13;95133.56;5128399;27;20031;-76
2021/07/23 00:24:52;;;;;;;5.43;2.70;;;;;;;23.82;47.10;95100.56;5129622;27;20557;-76
2021/07/23 00:27:18;;;;;;;5.18;2.97;;;;;;;24.05;47.34;95141.53;5129407;27;20030;-76
2021/07/23 00:29:43;;;;;;;5.45;2.70;;;;;;;24.02;47.20;95131.63;5129353;27;20080;-76
2021/07/23 00:32:09;;;;;;;3.55;2.70;;;;;;;24.03;47.49;95133.09;5129619;27;20023;-76
2021/07/23 00:34:34;;;;;;;4.82;2.50;;;;;;;24.00;47.25;95134.09;5129205;27;20023;-76
2021/07/23 00:36:59;;;;;;;3.35;2.60;;;;;;;23.97;47.62;95124.22;5129227;27;20516;-75
2021/07/23 00:39:25;;;;;;;6.30;2.65;;;;;;;23.98;47.69;95127.69;5119756;27;20027;-76
2021/07/23 00:41:50;;;;;;;3.30;2.83;;;;;;;23.95;47.82;95126.72;5124893;27;20497;-75
2021/07/23 00:44:16;;;;;;;3.85;2.63;;;;;;;23.93;47.79;95123.78;5129096;27;20031;-75
2021/07/23 00:46:41;;;;;;;3.08;2.50;;;;;;;23.92;47.83;95133.19;5110609;27;20024;-75
2021/07/23 00:49:07;;;;;;;3.17;2.67;;;;;;;23.89;47.95;95133.50;5106568;28;20027;-76
2021/07/23 00:51:32;;;;;;;6.88;2.78;;;;;;;23.87;47.94;95117.63;5108550;28;20023;-76
2021/07/23 00:53:58;;;;;;;4.07;2.45;;;;;;;23.36;47.77;95043.44;5108471;28;20029;-77
2021/07/23 00:56:23;;;;;;;3.33;2.33;;;;;;;23.88;47.94;95116.38;5107057;28;20047;-77
2021/07/23 00:58:48;;;;;;;4.32;2.17;;;;;;;23.82;47.64;95111.50;5108018;28;20028;-76
2021/07/23 01:01:14;;;;;;;3.03;2.55;;;;;;;23.67;47.82;95086.59;5107047;28;20034;-78
2021/07/23 01:03:39;;;;;;;3.63;2.47;;;;;;;23.82;47.80;95114.94;5108621;28;20028;-78
2021/07/23 01:06:05;;;;;;;4.68;2.40;;;;;;;23.86;47.49;95114.69;5108179;28;20026;-77
2021/07/23 01:08:30;;;;;;;2.75;2.42;;;;;;;23.83;47.61;95112.97;5107986;28;20540;-76
2021/07/23 01:10:56;;;;;;;5.88;3.08;;;;;;;23.72;48.24;95096.69;5108462;28;20079;-75
2021/07/23 01:13:21;;;;;;;4.30;2.47;;;;;;;23.81;47.65;95120.91;5108034;28;20019;-75
2021/07/23 01:15:47;;;;;;;4.35;2.72;;;;;;;23.23;48.11;95024.25;5108094;28;20027;-75
2021/07/23 01:18:12;;;;;;;3.90;2.53;;;;;;;23.74;48.11;95105.13;5107799;28;20031;-76
2021/07/23 01:20:38;;;;;;;3.70;2.90;;;;;;;23.77;48.13;95109.56;5106330;28;20054;-76
2021/07/23 01:23:03;;;;;;;3.90;2.63;;;;;;;23.63;48.17;95107.91;5106677;28;20493;-75
2021/07/23 01:25:29;;;;;;;3.85;2.78;;;;;;;23.67;48.25;95116.56;5107714;28;20035;-77
2021/07/23 01:27:55;;;;;;;4.15;2.72;;;;;;;23.68;48.06;95118.06;5107552;28;20027;-77
2021/07/23 01:30:21;;;;;;;3.47;2.63;;;;;;;23.63;48.05;95122.28;5106172;28;20031;-75
2021/07/23 01:32:47;;;;;;;3.92;2.70;;;;;;;23.65;48.40;95113.63;5106073;28;20461;-74
2021/07/23 01:35:12;;;;;;;3.67;2.75;;;;;;;23.63;48.14;95116.06;5107842;28;20039;-77
2021/07/23 01:37:41;;;;;;;3.05;2.42;;;;;;;23.61;48.16;95108.41;5107360;28;20028;-78
2021/07/23 01:40:07;;;;;;;3.60;2.63;;;;;;;23.62;47.84;95109.16;5107837;28;20027;-77
2021/07/23 01:42:32;;;;;;;3.55;2.85;;;;;;;23.22;48.11;95055.44;5107954;28;20062;-76
2021/07/23 01:44:57;;;;;;;4.30;2.80;;;;;;;23.57;47.87;95101.75;5089523;28;20445;-76
2021/07/23 01:47:24;;;;;;;3.47;2.53;;;;;;;23.55;48.16;95104.25;5107175;28;20035;-77
2021/07/23 01:49:49;;;;;;;3.42;2.35;;;;;;;23.58;48.39;95108.69;5106061;28;20093;-75
2021/07/23 01:52:14;;;;;;;4.95;2.50;;;;;;;23.54;48.41;95105.50;5107198;28;20545;-75
2021/07/23 01:54:40;;;;;;;4.15;2.50;;;;;;;23.13;48.10;95047.59;5106995;28;20059;-76
2021/07/23 01:57:05;;;;;;;2.92;2.45;;;;;;;23.52;48.45;95105.25;5107271;28;20019;-75
2021/07/23 01:59:31;;;;;;;3.08;2.47;;;;;;;23.51;48.49;95104.53;5107235;28;20539;-75
2021/07/23 02:01:56;;;;;;;3.65;2.65;;;;;;;23.49;48.22;95109.00;5107041;28;20029;-77
2021/07/23 02:04:23;;;;;;;4.63;2.78;;;;;;;23.50;48.25;95113.22;5107250;28;20020;-75
2021/07/23 02:06:48;;;;;;;4.07;2.72;;;;;;;23.46;48.56;95112.75;5106968;28;20034;-77
2021/07/23 02:09:14;;;;;;;4.38;2.60;;;;;;;23.48;48.76;95115.69;5106842;28;20059;-75
2021/07/23 02:11:39;;;;;;;4.32;2.58;;;;;;;23.46;48.24;95107.28;5105561;28;20024;-77
2021/07/23 02:14:07;;;;;;;4.22;2.70;;;;;;;23.47;48.31;95108.78;5106794;28;20027;-77
2021/07/23 02:16:35;;;;;;;3.25;2.50;;;;;;;22.91;48.35;95036.09;5106837;28;20030;-76
2021/07/23 02:19:01;;;;;;;3.40;2.40;;;;;;;22.55;48.41;94982.13;5105413;28;20030;-77
2021/07/23 02:21:26;;;;;;;5.80;3.13;;;;;;;23.42;48.14;95106.81;5105838;28;20019;-77
2021/07/23 02:23:52;;;;;;;4.47;2.67;;;;;;;23.41;48.33;95110.81;5107038;28;20732;-77
2021/07/23 02:26:21;;;;;;;5.22;2.90;;;;;;;23.41;48.38;95108.09;5105388;28;20031;-76
2021/07/23 02:28:47;;;;;;;4.15;2.72;;;;;;;23.38;48.32;95106.38;5106388;28;20038;-76
2021/07/23 02:31:13;;;;;;;3.88;2.67;;;;;;;23.38;48.46;95114.53;5107241;28;20031;-77
2021/07/23 02:33:38;;;;;;;4.28;3.00;;;;;;;23.37;48.39;95119.25;5105489;28;20034;-75
2021/07/23 02:36:04;;;;;;;4.82;3.00;;;;;;;23.36;48.36;95114.28;5106615;28;20046;-77
2021/07/23 02:38:29;;;;;;;3.92;2.58;;;;;;;23.34;48.42;95111.34;5106060;28;20023;-77
2021/07/23 02:40:56;;;;;;;5.22;2.83;;;;;;;23.31;48.49;95106.91;5125580;27;20045;-76
2021/07/23 02:43:21;;;;;;;4.80;2.80;;;;;;;23.30;48.45;95110.13;5126807;27;20080;-75
2021/07/23 02:45:47;;;;;;;4.22;2.92;;;;;;;23.28;48.43;95107.91;5127281;27;20070;-75
2021/07/23 02:48:12;;;;;;;3.63;2.60;;;;;;;22.76;48.75;95035.69;5117484;27;20034;-76
2021/07/23 02:50:38;;;;;;;3.67;2.67;;;;;;;23.28;48.39;95110.66;5106422;28;20035;-77
2021/07/23 02:53:03;;;;;;;4.63;2.65;;;;;;;23.29;48.41;95101.22;5106840;28;20035;-76
2021/07/23 02:55:29;;;;;;;4.53;3.00;;;;;;;23.26;48.62;95110.41;5106464;28;20060;-76
2021/07/23 02:57:54;;;;;;;4.80;2.78;;;;;;;23.21;48.41;95111.19;5105644;28;20024;-76
2021/07/23 03:00:20;;;;;;;4.13;3.10;;;;;;;23.19;48.37;95110.94;5106274;28;20032;-74
2021/07/23 03:02:45;;;;;;;3.88;2.63;;;;;;;23.16;48.88;95111.97;5106103;28;20028;-75
2021/07/23 03:05:11;;;;;;;4.70;2.97;;;;;;;23.16;48.74;95100.34;5106459;28;20122;-77
2021/07/23 03:07:36;;;;;;;4.05;2.90;;;;;;;23.16;48.88;95109.22;5123662;28;20031;-76
2021/07/23 03:10:02;;;;;;;4.82;3.08;;;;;;;23.15;48.53;95115.94;5126822;28;20012;-77
2021/07/23 03:12:27;;;;;;;4.32;2.80;;;;;;;23.15;48.49;95113.22;5126827;27;20111;-75
2021/07/23 03:14:53;;;;;;;3.30;2.83;;;;;;;23.05;48.44;95101.16;5126843;28;20027;-75
2021/07/23 03:17:18;;;;;;;4.43;2.72;;;;;;;22.98;48.45;95090.78;5126640;28;20577;-76
2021/07/23 03:19:44;;;;;;;4.68;2.65;;;;;;;23.05;48.84;95105.84;5126640;28;20172;-76
2021/07/23 03:22:09;;;;;;;5.75;3.00;;;;;;;23.00;48.76;95104.66;5127601;27;20023;-75
2021/07/23 03:24:35;;;;;;;4.32;2.65;;;;;;;23.03;48.78;95109.09;5130672;27;20027;-75
2021/07/23 03:27:00;;;;;;;3.88;2.83;;;;;;;23.04;48.70;95116.00;5130344;27;20035;-76
2021/07/23 03:29:26;;;;;;;5.43;3.00;;;;;;;23.01;49.15;95111.56;5130463;27;20031;-75
2021/07/23 03:31:51;;;;;;;4.97;2.80;;;;;;;23.00;48.85;95115.53;5129215;27;20023;-77
2021/07/23 03:34:17;;;;;;;4.72;2.92;;;;;;;23.02;48.79;95113.03;5127294;27;20027;-74
2021/07/23 03:36:42;;;;;;;4.22;2.53;;;;;;;23.00;49.06;95112.81;5110044;28;20038;-75
2021/07/23 03:39:07;;;;;;;5.30;2.90;;;;;;;22.98;49.04;95109.84;5109634;28;20027;-75
2021/07/23 03:41:33;;;;;;;4.20;3.10;;;;;;;23.02;48.76;95107.59;5110021;28;20031;-75
2021/07/23 03:43:58;;;;;;;5.03;2.90;;;;;;;23.00;49.03;95107.38;5110153;28;20027;-75
2021/07/23 03:46:24;;;;;;;7.15;3.00;;;;;;;23.03;48.86;95114.53;5109699;27;20024;-76
2021/07/23 03:48:53;;;;;;;4.93;2.80;;;;;;;22.97;49.04;95108.38;5109206;28;20019;-75
2021/07/23 03:51:18;;;;;;;4.75;3.03;;;;;;;22.98;49.02;95115.28;5109257;28;20031;-75
2021/07/23 03:53:44;;;;;;;4.55;3.13;;;;;;;22.94;48.99;95117.56;5109675;28;20065;-76
2021/07/23 03:56:10;;;;;;;3.67;2.55;;;;;;;22.98;48.85;95118.00;5108291;28;20104;-76
2021/07/23 03:58:36;;;;;;;3.90;3.10;;;;;;;22.94;49.32;95128.44;5109800;27;20031;-74
2021/07/23 04:01:08;;;;;;;3.72;2.60;;;;;;;22.96;48.93;95119.78;5109447;28;20024;-76
2021/07/23 04:03:33;;;;;;;6.65;2.78;;;;;;;22.94;48.89;95117.56;5109355;28;20061;-77
2021/07/23 04:06:02;;;;;;;4.25;2.75;;;;;;;22.95;49.25;95129.91;5107903;27;20024;-75
2021/07/23 04:08:27;;;;;;;3.92;2.83;;;;;;;22.99;49.29;95129.66;5121694;27;20026;-75
2021/07/23 04:10:53;;;;;;;3.85;2.75;;;;;;;23.01;49.36;95117.00;5129719;27;20023;-74
2021/07/23 04:13:18;;;;;;;5.75;2.83;;;;;;;23.04;49.16;95116.00;5128135;27;20034;-76
2021/07/23 04:15:44;;;;;;;5.88;3.00;;;;;;;23.02;49.17;95115.78;5119791;27;20027;-75
2021/07/23 04:18:09;;;;;;;4.68;2.65;;;;;;;23.07;49.48;95125.16;5109373;28;20029;-76
2021/07/23 04:20:35;;;;;;;4.18;2.88;;;;;;;23.04;49.47;95116.00;5109238;28;20126;-72
2021/07/23 04:23:00;;;;;;;3.53;2.80;;;;;;;23.03;49.75;95121.94;5121712;27;20088;-72
2021/07/23 04:25:25;;;;;;;3.88;2.88;;;;;;;22.61;49.77;95050.88;5121153;27;20061;-73
2021/07/23 04:27:51;;;;;;;5.55;3.08;;;;;;;23.09;49.64;95111.75;5126058;27;20019;-73
2021/07/23 04:30:17;;;;;;;4.70;2.75;;;;;;;23.09;49.97;95112.53;5121985;27;20023;-72
2021/07/23 04:32:46;;;;;;;5.07;3.33;;;;;;;23.19;49.00;95115.66;5126106;27;20035;-72
2021/07/23 04:35:12;;;;;;;6.17;2.90;;;;;;;23.19;49.13;95105.50;5116362;27;20083;-72
2021/07/23 04:37:37;;;;;;;5.03;3.25;;;;;;;23.36;48.74;95108.84;5126494;27;20724;-70
2021/07/23 04:40:06;;;;;;;3.58;2.90;;;;;;;23.42;49.12;95113.03;5114148;27;20028;-71
2021/07/23 04:42:32;;;;;;;6.85;3.63;;;;;;;23.48;48.55;95105.56;5115151;27;20028;-73
2021/07/23 04:44:57;;;;;;;5.07;3.17;;;;;;;23.09;48.50;95046.38;5114665;27;20122;-73
2021/07/23 04:47:23;;;;;;;8.20;4.03;;;;;;;23.59;48.84;95113.63;5111965;27;20016;-75
2021/07/23 04:49:48;;;;;;;7.45;3.80;;;;;;;23.74;47.92;95122.22;5113915;27;20015;-72
2021/07/23 04:52:14;;;;;;;7.88;3.80;;;;;;;23.85;48.30;95111.19;5116678;27;20019;-72
2021/07/23 04:54:39;;;;;;;4.38;2.90;;;;;;;23.70;48.22;95112.84;5113735;27;20046;-69
2021/07/23 04:57:17;;;;;;;3.95;2.95;;;;;;;23.82;48.35;95111.50;5115375;27;20023;-76
2021/07/23 04:59:42;;;;;;;7.15;3.30;;;;;;;24.04;47.86;95106.56;5119644;27;20527;-77
2021/07/23 05:02:08;;;;;;;6.07;3.10;;;;;;;24.15;47.30;95099.00;5115557;27;20023;-74
2021/07/23 05:04:34;;;;;;;7.10;3.20;;;;;;;24.48;46.50;95106.84;5126836;27;20030;-75
2021/07/23 05:07:00;;;;;;;8.13;3.25;;;;;;;24.68;45.73;95109.06;5115748;27;20038;-78
2021/07/23 05:09:25;;;;;;;4.90;3.15;;;;;;;24.75;45.89;95111.22;5119220;27;20027;-75
2021/07/23 05:11:51;;;;;;;6.25;3.47;;;;;;;24.90;45.53;95107.56;5112282;27;20023;-71
2021/07/23 05:14:17;;;;;;;5.35;3.33;;;;;;;24.94;44.99;95105.25;5122254;27;20032;-74
2021/07/23 05:16:42;;;;;;;6.68;3.75;;;;;;;25.05;44.85;95105.16;5116518;27;20015;-73
2021/07/23 05:19:08;;;;;;;7.03;3.38;;;;;;;25.14;44.86;95085.66;5128541;27;20031;-73
2021/07/23 05:21:34;;;;;;;5.50;3.70;;;;;;;24.69;44.38;95014.97;5118413;27;20027;-74
2021/07/23 05:24:03;;;;;;;6.15;3.67;;;;;;;25.30;44.34;95101.06;5116174;27;20080;-73
2021/07/23 05:26:36;;;;;;;7.40;3.33;;;;;;;25.40;44.36;95107.63;5118047;27;20020;-72
2021/07/23 05:29:04;;;;;;;8.20;3.65;;;;;;;25.46;44.31;95094.59;5118668;27;20035;-80
2021/07/23 05:31:30;;;;;;;8.63;4.18;;;;;;;25.53;44.11;95110.38;5124620;27;21913;-73
2021/07/23 05:33:57;;;;;;;7.03;4.10;;;;;;;25.63;43.85;95103.28;5103949;27;20076;-77
2021/07/23 05:36:24;;;;;;;7.43;3.83;;;;;;;25.59;43.95;95089.16;5122614;27;20046;-76
2021/07/23 05:38:49;;;;;;;11.18;4.68;;;;;;;25.75;43.96;95104.59;5125469;27;20097;-72
2021/07/23 05:41:14;;;;;;;9.80;4.43;;;;;;;25.78;44.19;95107.03;5123390;27;20039;-79
2021/07/23 05:43:40;;;;;;;7.00;4.18;;;;;;;25.87;43.72;95106.63;5124050;27;20068;-75
2021/07/23 05:46:06;;;;;;;9.00;4.25;;;;;;;25.74;43.87;95081.22;5113165;27;20036;-79
2021/07/23 05:48:34;;;;;;;9.07;3.95;;;;;;;26.01;43.53;95111.59;5122836;27;20126;-79
2021/07/23 05:51:02;;;;;;;9.02;3.90;;;;;;;25.93;43.31;95088.88;5124176;27;20094;-81
2021/07/23 05:53:27;;;;;;;8.48;4.35;;;;;;;26.03;43.25;95098.13;5109836;27;20037;-77
2021/07/23 05:55:52;;;;;;;7.72;4.00;;;;;;;26.11;43.07;95098.97;5123553;27;20035;-78
2021/07/23 05:58:18;;;;;;;7.13;4.22;;;;;;;26.18;43.38;95103.81;5126270;27;20027;-76
2021/07/23 06:00:44;;;;;;;6.82;4.00;;;;;;;26.20;42.86;95095.81;5116805;27;20022;-84
2021/07/23 06:03:09;;;;;;;5.45;3.63;;;;;;;26.34;42.80;95109.03;5125751;27;20115;-76
2021/07/23 06:05:34;;;;;;;7.20;4.30;;;;;;;26.39;42.46;95112.94;5127142;27;20035;-80
2021/07/23 06:08:00;;;;;;;9.02;4.20;;;;;;;26.38;42.29;95103.22;5124107;27;20075;-80
2021/07/23 06:10:25;;;;;;;11.75;4.40;;;;;;;26.44;42.43;95098.38;5127110;27;20031;-80
2021/07/23 06:12:52;;;;;;;7.25;4.20;;;;;;;26.48;42.20;95104.28;5127362;27;20031;-78
2021/07/23 06:15:17;;;;;;;7.32;4.25;;;;;;;26.48;42.25;95093.34;5129299;27;20056;-76
2021/07/23 06:17:43;;;;;;;6.38;3.90;;;;;;;26.56;41.95;95088.69;5116754;27;20025;-75
2021/07/23 06:20:09;;;;;;;6.45;4.10;;;;;;;26.55;41.99;95098.19;5115040;27;20011;-76
2021/07/23 06:22:34;;;;;;;6.32;3.55;;;;;;;26.51;42.56;95108.72;5125599;27;20084;-71
2021/07/23 06:24:59;;;;;;;5.40;3.08;;;;;;;26.50;42.49;95101.75;5121854;27;20023;-79
2021/07/23 06:27:26;;;;;;;8.93;3.60;;;;;;;26.17;42.57;95066.75;5116105;27;20066;-78
2021/07/23 06:30:00;;;;;;;6.30;3.28;;;;;;;26.43;42.43;95103.13;5110328;27;20105;-80
2021/07/23 06:32:28;;;;;;;6.38;3.58;;;;;;;26.23;42.67;95083.81;5120179;27;20099;-78
2021/07/23 06:34:53;;;;;;;6.88;3.55;;;;;;;26.32;42.80;95097.13;5121296;27;20019;-79
2021/07/23 06:37:22;;;;;;;6.07;3.53;;;;;;;26.25;43.02;95100.47;5128795;27;20038;-79
2021/07/23 06:39:48;;;;;;;7.63;3.60;;;;;;;26.14;42.83;95092.44;5123019;27;20493;-79
2021/07/23 06:42:14;;;;;;;5.68;3.25;;;;;;;25.67;43.15;95038.09;5099553;28;20369;-79
2021/07/23 06:44:39;;;;;;;8.32;2.97;;;;;;;26.10;43.29;95096.75;5111070;27;20390;-80
2021/07/23 06:47:05;;;;;;;5.35;3.17;;;;;;;25.75;43.41;95038.94;5119763;27;20390;-80
2021/07/23 06:49:30;;;;;;;5.65;3.28;;;;;;;26.14;43.42;95094.44;5115914;27;20019;-80
2021/07/23 06:51:56;;;;;;;7.00;2.97;;;;;;;25.61;43.36;95021.00;5120740;27;20034;-80
2021/07/23 06:54:21;;;;;;;6.57;3.38;;;;;;;26.08;43.19;95097.28;5108856;28;20755;-79
2021/07/23 06:56:49;;;;;;;6.32;3.22;;;;;;;26.06;43.08;95097.06;5124342;27;20015;-81
2021/07/23 06:59:15;;;;;;;9.77;3.25;;;;;;;25.92;43.32;95076.44;5123639;28;20031;-80
2021/07/23 07:01:41;;;;;;;8.18;3.03;;;;;;;26.07;43.21;95098.56;5114730;28;20463;-80
2021/07/23 07:04:06;;;;;;;6.00;3.00;;;;;;;26.07;43.25;95087.59;5122791;28;20492;-78
2021/07/23 07:06:31;;;;;;;7.45;3.35;;;;;;;26.05;43.08;95086.66;5125782;28;20091;-79
2021/07/23 07:08:57;;;;;;;5.65;3.17;;;;;;;25.36;43.32;94989.63;5122724;28;20048;-80
2021/07/23 07:11:22;;;;;;;4.85;2.97;;;;;;;26.02;43.48;95084.97;5108719;28;20023;-79
2021/07/23 07:13:48;;;;;;;6.57;3.25;;;;;;;25.91;43.58;95071.47;5125221;28;20034;-80
2021/07/23 07:16:13;;;;;;;5.80;3.08;;;;;;;25.61;43.91;95029.22;5126853;28;20658;-79
2021/07/23 07:18:41;;;;;;;5.03;3.13;;;;;;;25.99;43.80;95081.28;5123262;28;20417;-81
2021/07/23 07:21:06;;;;;;;7.90;3.05;;;;;;;25.94;43.36;95079.38;5119848;28;20038;-76
2021/07/23 07:23:32;;;;;;;4.30;3.05;;;;;;;25.43;43.00;95002.69;5124804;28;20023;-77
2021/07/23 07:25:57;;;;;;;4.85;3.10;;;;;;;25.41;43.39;94994.25;5108923;28;20038;-78
2021/07/23 07:28:23;;;;;;;5.30;3.30;;;;;;;25.88;43.55;95076.00;5124323;28;20505;-72
2021/07/23 07:30:49;;;;;;;4.80;2.70;;;;;;;25.91;43.18;95068.75;5121057;28;20035;-72
2021/07/23 07:33:14;;;;;;;7.00;3.00;;;;;;;25.86;43.75;95070.31;5126217;28;20027;-78
2021/07/23 07:35:44;;;;;;;4.70;3.13;;;;;;;25.85;43.84;95062.63;5134822;28;20018;-78
2021/07/23 07:38:09;;;;;;;4.80;3.28;;;;;;;25.82;43.36;95058.22;5127755;28;20034;-79
2021/07/23 07:40:35;;;;;;;5.15;2.60;;;;;;;25.90;43.25;95062.53;5035778;28;20050;-80
2021/07/23 07:43:00;;;;;;;5.35;2.72;;;;;;;25.77;43.58;95052.81;5029238;28;20029;-79
2021/07/23 07:45:26;;;;;;;5.40;2.85;;;;;;;25.12;43.56;94951.50;5024726;28;20502;-79
2021/07/23 07:47:52;;;;;;;5.35;3.00;;;;;;;25.35;43.98;94986.16;5041719;28;20059;-80
2021/07/23 07:50:18;;;;;;;4.90;3.00;;;;;;;25.93;43.87;95061.50;5026340;28;20041;-80
2021/07/23 07:52:43;;;;;;;7.93;2.90;;;;;;;25.95;43.59;95064.44;5060191;28;20035;-79
2021/07/23 07:55:10;;;;;;;6.43;2.80;;;;;;;25.99;43.86;95067.59;5058548;28;20060;-78
2021/07/23 07:57:35;;;;;;;4.90;3.15;;;;;;;25.80;43.62;95042.31;5055245;28;20480;-78
2021/07/23 08:00:01;;;;;;;6.45;3.75;;;;;;;26.05;43.34;95073.72;5034224;28;20036;-77
2021/07/23 08:02:32;;;;;;;8.48;3.00;;;;;;;25.74;43.01;95010.09;5049089;28;20483;-79
2021/07/23 08:04:57;;;;;;;11.82;3.30;;;;;;;26.12;42.71;95067.59;5028911;28;20033;-79
2021/07/23 08:07:29;;;;;;;6.80;3.20;;;;;;;25.75;42.74;95006.13;5029579;28;20408;-78
2021/07/23 08:10:01;;;;;;;9.60;3.30;;;;;;;26.18;42.71;95065.50;5031631;28;20048;-80
2021/07/23 08:12:26;;;;;;;14.45;3.90;;;;;;;26.14;42.67;95056.84;5042839;28;20237;-79
2021/07/23 08:14:52;;;;;;;8.65;3.17;;;;;;;26.19;42.63;95061.50;5038758;28;20021;-78
2021/07/23 08:17:18;;;;;;;8.65;3.10;;;;;;;26.22;42.18;95065.16;5040311;28;20025;-81
2021/07/23 08:19:43;;;;;;;6.53;2.92;;;;;;;25.69;42.30;94975.38;5031550;28;20025;-81
2021/07/23 08:22:09;;;;;;;6.05;3.00;;;;;;;25.64;42.09;94976.22;5032231;28;20040;-81
2021/07/23 08:24:34;;;;;;;7.55;3.42;;;;;;;26.09;42.06;95037.81;5015249;28;20028;-79
2021/07/23 08:27:00;;;;;;;6.07;2.90;;;;;;;26.28;42.24;95058.38;5032762;28;20087;-82
2021/07/23 08:29:25;;;;;;;5.75;2.95;;;;;;;26.28;40.88;95052.91;5034022;28;20515;-78
2021/07/23 08:31:51;;;;;;;5.22;2.90;;;;;;;26.15;40.60;95022.75;5052484;28;20025;-80
2021/07/23 08:34:16;;;;;;;6.03;2.72;;;;;;;26.35;40.66;95063.97;5051297;28;20539;-79
2021/07/23 08:36:42;;;;;;;5.80;3.00;;;;;;;26.34;40.91;95056.28;5043580;28;20619;-80
2021/07/23 08:39:07;;;;;;;6.25;3.20;;;;;;;26.30;41.11;95050.38;5046928;28;20032;-80
2021/07/23 08:41:35;;;;;;;7.35;2.97;;;;;;;25.93;40.25;94979.41;5047129;28;20028;-82
2021/07/23 08:44:00;;;;;;;5.50;2.90;;;;;;;26.46;39.67;95052.03;5040998;28;20037;-80
2021/07/23 08:46:28;;;;;;;6.20;2.75;;;;;;;26.41;39.45;95044.66;5037464;28;20036;-80
2021/07/23 08:48:53;;;;;;;5.07;2.97;;;;;;;25.91;38.91;94970.25;5047931;28;20021;-78
2021/07/23 08:51:19;;;;;;;4.32;2.85;;;;;;;26.44;39.54;95038.13;5047716;28;20029;-80
2021/07/23 08:53:45;;;;;;;6.25;2.70;;;;;;;26.06;38.44;94987.59;5036763;28;20029;-79
2021/07/23 08:56:11;;;;;;;4.00;2.63;;;;;;;26.53;38.58;95045.91;5045434;28;20693;-80
2021/07/23 08:58:37;;;;;;;5.22;2.67;;;;;;;26.56;38.27;95053.81;5029382;28;20118;-80
2021/07/23 09:01:02;;;;;;;5.10;2.60;;;;;;;26.63;37.80;95046.97;5029106;28;20547;-82
2021/07/23 09:03:28;;;;;;;7.10;2.92;;;;;;;26.50;37.81;95020.34;5045352;28;20028;-79
2021/07/23 09:05:53;;;;;;;15.40;3.63;;;;;;;26.66;37.95;95040.41;5050980;28;20025;-80
2021/07/23 09:08:20;;;;;;;7.00;2.80;;;;;;;26.65;37.90;95034.22;5046670;28;20026;-83
2021/07/23 09:10:46;;;;;;;6.55;2.58;;;;;;;26.68;37.73;95035.13;5042807;28;20028;-85
2021/07/23 09:13:22;;;;;;;6.72;2.60;;;;;;;26.32;37.74;94982.09;5047363;28;20025;-81
2021/07/23 09:15:47;;;;;;;6.30;3.15;;;;;;;26.75;37.25;95029.00;5047593;28;20029;-80
2021/07/23 09:18:23;;;;;;;4.35;2.90;;;;;;;26.78;38.48;95029.41;5046044;28;20032;-83
2021/07/23 09:21:16;;;;;;;4.65;2.55;;;;;;;26.97;35.76;95035.50;5047259;28;20017;-83
2021/07/23 09:23:42;;;;;;;5.75;2.95;;;;;;;27.03;34.63;95022.41;5044164;28;20025;-84
2021/07/23 09:26:07;;;;;;;3.55;2.70;;;;;;;27.22;35.10;95028.47;5031055;28;20032;-86
2021/07/23 09:28:34;;;;;;;4.70;3.03;;;;;;;27.32;35.49;95021.22;5048913;28;20733;-77
2021/07/23 09:31:01;;;;;;;4.57;2.75;;;;;;;27.38;34.50;95008.13;5043270;28;20044;-80
2021/07/23 09:33:31;;;;;;;6.15;3.08;;;;;;;27.45;34.70;95001.97;5045471;28;20116;-80
2021/07/23 09:36:15;;;;;;;4.47;2.90;;;;;;;27.66;34.77;95022.66;5046989;28;20029;-76
2021/07/23 09:38:42;;;;;;;4.00;2.65;;;;;;;27.83;33.84;95020.19;5032349;28;20032;-75
2021/07/23 09:41:09;;;;;;;4.97;2.78;;;;;;;27.39;33.85;94928.03;5048899;28;20121;-78
2021/07/23 09:43:35;;;;;;;6.05;3.03;;;;;;;28.00;35.23;95010.25;5048338;28;20029;-77
2021/07/23 09:46:16;;;;;;;5.43;2.70;;;;;;;28.00;36.34;95007.53;5046303;28;20037;-75
2021/07/23 09:48:42;;;;;;;6.05;2.58;;;;;;;28.05;37.25;95014.13;5038767;28;20037;-75
2021/07/23 09:51:08;;;;;;;5.70;2.53;;;;;;;28.02;37.19;95010.44;5035945;28;20553;-76
2021/07/23 09:53:35;;;;;;;3.95;2.35;;;;;;;28.04;37.46;95002.44;5046543;28;20032;-75
2021/07/23 09:56:00;;;;;;;4.22;2.55;;;;;;;28.13;36.64;95004.72;5036682;28;20151;-75
2021/07/23 09:58:25;;;;;;;3.75;2.50;;;;;;;28.18;37.12;94998.31;5042143;28;20512;-80
2021/07/23 10:00:53;;;;;;;8.63;2.50;;;;;;;28.26;37.19;95008.06;5038907;28;20503;-78
2021/07/23 10:03:19;;;;;;;4.82;2.67;;;;;;;27.82;37.66;94930.91;5041337;28;20427;-75
2021/07/23 10:06:00;;;;;;;4.90;3.03;;;;;;;28.41;35.68;94996.41;5039554;28;20033;-73
2021/07/23 10:08:32;;;;;;;3.75;2.70;;;;;;;28.63;33.49;94995.78;5058030;28;20031;-73
2021/07/23 10:10:58;;;;;;;3.97;2.70;;;;;;;28.81;32.41;94996.22;5045154;28;20037;-75
2021/07/23 10:13:26;;;;;;;4.78;2.85;;;;;;;28.98;33.04;94993.69;5038688;28;20392;-73
2021/07/23 10:15:52;;;;;;;8.27;3.03;;;;;;;29.09;33.54;94998.13;5040468;28;20055;-72
2021/07/23 10:18:18;;;;;;;4.30;3.40;;;;;;;29.16;31.90;94981.63;5057279;28;20025;-71
2021/07/23 10:20:45;;;;;;;4.72;3.03;;;;;;;29.21;33.50;94986.25;5045764;28;20020;-75
2021/07/23 10:23:11;;;;;;;4.70;3.03;;;;;;;29.18;33.61;94992.84;5046695;28;20840;-74
2021/07/23 10:25:37;;;;;;;5.63;3.00;;;;;;;29.32;31.40;94977.66;5045212;28;20078;-71
2021/07/23 10:28:03;;;;;;;4.47;3.40;;;;;;;29.33;31.67;94979.13;5041967;28;20097;-72
2021/07/23 10:30:35;;;;;;;4.05;3.00;;;;;;;28.72;33.32;94899.09;5040697;28;20025;-74
2021/07/23 10:33:01;;;;;;;4.07;2.70;;;;;;;29.20;33.70;94973.75;5030415;28;20037;-77
2021/07/23 10:35:26;;;;;;;3.88;3.00;;;;;;;29.20;33.96;94976.50;5032844;28;21537;-77
2021/07/23 10:37:52;;;;;;;6.65;3.13;;;;;;;29.01;33.68;94954.09;5047670;28;20028;-77
2021/07/23 10:40:19;;;;;;;4.50;3.10;;;;;;;29.08;33.28;94969.88;5046073;28;20041;-78
2021/07/23 10:42:45;;;;;;;4.75;2.88;;;;;;;28.83;33.35;94933.19;5045158;28;20029;-77
2021/07/23 10:45:15;;;;;;;4.18;3.15;;;;;;;28.58;33.72;94903.22;5047014;28;20023;-81
2021/07/23 10:47:41;;;;;;;4.25;2.92;;;;;;;28.96;34.20;94959.78;5029482;28;20029;-78
2021/07/23 10:50:30;;;;;;;6.38;2.90;;;;;;;28.89;33.99;94944.75;5044949;28;20481;-78
2021/07/23 10:52:56;;;;;;;;;;;;;;;28.90;33.40;94959.94;5030539;28;20130;-78
2021/07/23 10:55:22;;;;;;;5.73;3.17;;;;;;;28.81;33.55;94946.75;5037627;28;19920;-79
2021/07/23 10:58:09;;;;;;;4.57;3.30;;;;;;;28.85;33.74;94958.13;5043360;28;20271;-79
2021/07/23 11:00:45;;;;;;;5.07;3.22;;;;;;;28.82;33.49;94953.72;5034608;28;20052;-78
2021/07/23 11:03:41;;;;;;;4.63;3.00;;;;;;;28.81;33.30;94960.47;5042703;28;20021;-77
2021/07/23 11:06:21;;;;;;;4.57;3.00;;;;;;;28.65;34.11;94941.00;5042961;28;20017;-78
2021/07/23 11:09:04;;;;;;;4.55;3.08;;;;;;;28.76;34.11;94950.41;5047390;28;20029;-81
2021/07/23 11:11:29;;;;;;;4.22;3.13;;;;;;;28.73;33.58;94946.00;5022950;28;20021;-76
2021/07/23 11:13:55;;;;;;;4.53;2.78;;;;;;;28.60;33.96;94925.41;5046353;28;20021;-81
2021/07/23 11:16:24;;;;;;;5.63;3.38;;;;;;;28.27;33.73;94882.47;5044961;28;20094;-79
2021/07/23 11:18:57;;;;;;;4.18;2.78;;;;;;;28.67;33.57;94943.94;5045298;28;20033;-78
2021/07/23 11:21:23;;;;;;;4.90;3.22;;;;;;;28.64;34.16;94931.28;5042682;28;20116;-77
2021/07/23 11:23:49;;;;;;;5.03;3.05;;;;;;;28.53;33.58;94918.59;5046462;28;20029;-78
2021/07/23 11:26:25;;;;;;;5.22;3.40;;;;;;;28.59;34.32;94934.94;5044847;28;20039;-80
2021/07/23 11:28:56;;;;;;;5.07;3.50;;;;;;;28.60;33.35;94931.63;5045650;28;20032;-79
2021/07/23 11:31:36;;;;;;;4.03;3.08;;;;;;;28.55;33.63;94929.03;5044590;28;20094;-79